Time;durP1;ratioP1;P1;durP2;ratioP2;P2;SDS_P1;SDS_P2;PMS_P1;PMS_P2;Temp;Humidity;BMP_temperature;BMP_pressure;BME280_temperature;BME280_humidity;BME280_pressure;Samples;Min_cycle;Max_cycle;Signal;HPM_P1;HPM_P2
2021/07/14 00:01:11;;;;;;;6.47;5.88;;;24.80;99.90;;;;;;5070861;28;20203;-75
2021/07/14 00:03:38;;;;;;;8.55;6.63;;;24.80;99.90;;;;;;5070728;28;20211;-75
2021/07/14 00:06:06;;;;;;;7.65;6.93;;;24.70;99.90;;;;;;5070833;28;20211;-75
2021/07/14 00:08:32;;;;;;;8.40;7.60;;;24.70;99.90;;;;;;5070174;28;20292;-75
2021/07/14 00:10:59;;;;;;;7.78;6.97;;;24.70;99.90;;;;;;5070742;28;20214;-75
2021/07/14 00:13:31;;;;;;;8.35;7.65;;;24.70;99.90;;;;;;5070401;28;20560;-74
2021/07/14 00:24:12;;;;;;;10.20;8.73;;;24.70;99.90;;;;;;5070191;28;20920;-74
2021/07/14 00:26:39;;;;;;;8.88;8.18;;;24.70;99.90;;;;;;5070537;28;20206;-74
2021/07/14 00:29:11;;;;;;;9.73;8.93;;;24.70;99.90;;;;;;5070242;28;20242;-76
2021/07/14 00:31:38;;;;;;;9.57;8.75;;;24.70;99.90;;;;;;5070264;28;20246;-75
2021/07/14 00:34:04;;;;;;;10.07;9.20;;;24.70;99.90;;;;;;5069931;28;20738;-73
2021/07/14 00:36:32;;;;;;;9.95;9.15;;;24.60;99.90;;;;;;5069980;28;20328;-73
2021/07/14 00:38:59;;;;;;;10.05;9.02;;;24.70;99.90;;;;;;5069966;28;20211;-73
2021/07/14 00:41:26;;;;;;;10.48;9.45;;;24.70;99.90;;;;;;5070023;28;20231;-73
2021/07/14 00:43:52;;;;;;;10.57;9.77;;;24.70;99.90;;;;;;5069840;28;20227;-74
2021/07/14 00:46:22;;;;;;;9.98;9.18;;;24.70;99.90;;;;;;5069749;28;20714;-73
2021/07/14 00:48:49;;;;;;;10.07;9.07;;;24.40;99.90;;;;;;5070016;28;20225;-73
2021/07/14 00:51:16;;;;;;;10.63;9.38;;;23.80;99.90;;;;;;5069365;28;20215;-73
2021/07/14 00:53:44;;;;;;;9.38;8.32;;;23.80;99.90;;;;;;5069860;28;20207;-73
2021/07/14 00:56:11;;;;;;;9.23;8.15;;;23.80;99.90;;;;;;5069737;28;20461;-74
2021/07/14 00:58:38;;;;;;;7.60;6.40;;;23.90;99.90;;;;;;5069692;28;20207;-73
2021/07/14 01:01:05;;;;;;;8.32;6.38;;;24.00;99.90;;;;;;5069627;28;20257;-73
2021/07/14 01:03:36;;;;;;;9.30;6.47;;;23.90;99.90;;;;;;5069341;28;20207;-73
2021/07/14 01:06:09;;;;;;;6.18;5.22;;;24.00;99.90;;;;;;5069826;28;20199;-73
2021/07/14 01:08:46;;;;;;;5.13;4.72;;;24.10;99.90;;;;;;5068890;28;20243;-73
2021/07/14 01:11:17;;;;;;;7.85;5.00;;;24.10;99.90;;;;;;5069101;28;20576;-73
2021/07/14 01:13:49;;;;;;;5.70;4.88;;;24.20;99.90;;;;;;5069224;28;20191;-73
2021/07/14 01:16:21;;;;;;;6.88;6.20;;;24.20;99.90;;;;;;5069066;28;20223;-73
2021/07/14 01:18:52;;;;;;;7.85;5.78;;;24.20;99.90;;;;;;5069134;28;20612;-73
2021/07/14 01:21:24;;;;;;;8.25;6.50;;;24.20;99.90;;;;;;5068896;28;20654;-73
2021/07/14 01:23:59;;;;;;;6.90;5.43;;;24.10;99.90;;;;;;5069123;28;20199;-73
2021/07/14 01:26:42;;;;;;;8.15;6.28;;;24.00;99.90;;;;;;5069183;28;20223;-73
2021/07/14 01:29:11;;;;;;;9.60;6.75;;;23.80;99.90;;;;;;5069183;28;20257;-73
2021/07/14 01:31:40;;;;;;;6.90;6.30;;;23.90;99.90;;;;;;5069334;28;20260;-75
2021/07/14 01:34:08;;;;;;;6.65;6.03;;;23.90;99.90;;;;;;5069179;28;20207;-75
2021/07/14 01:36:37;;;;;;;6.90;6.10;;;23.90;99.90;;;;;;5068940;28;20270;-74
2021/07/14 01:39:06;;;;;;;10.13;6.20;;;23.90;99.90;;;;;;5068722;28;20211;-74
2021/07/14 01:41:34;;;;;;;7.93;6.93;;;23.90;99.90;;;;;;5068817;28;20590;-74
2021/07/14 01:44:02;;;;;;;8.00;6.20;;;23.90;99.90;;;;;;5068569;28;20231;-74
2021/07/14 01:46:33;;;;;;;7.03;6.35;;;23.90;99.90;;;;;;5068752;28;20211;-75
2021/07/14 01:49:04;;;;;;;11.88;6.63;;;23.90;99.90;;;;;;5068622;28;20850;-75
2021/07/14 01:51:31;;;;;;;7.72;6.93;;;23.90;99.90;;;;;;5068779;28;20227;-74
2021/07/14 01:54:04;;;;;;;8.00;7.30;;;23.80;99.90;;;;;;5068650;28;20215;-75
2021/07/14 01:56:33;;;;;;;7.72;7.00;;;23.80;99.90;;;;;;5068651;28;20220;-74
2021/07/14 01:59:01;;;;;;;7.15;6.57;;;23.80;99.90;;;;;;5068549;28;20204;-74
2021/07/14 02:01:31;;;;;;;10.13;7.18;;;23.80;99.90;;;;;;5068628;28;20256;-73
2021/07/14 02:06:46;;;;;;;8.40;7.45;;;23.70;99.90;;;;;;5068319;28;20249;-75
2021/07/14 02:09:13;;;;;;;8.10;7.32;;;23.70;99.90;;;;;;5068047;28;20304;-75
2021/07/14 02:11:44;;;;;;;7.70;6.85;;;23.70;99.90;;;;;;5068648;28;20207;-74
2021/07/14 02:14:13;;;;;;;8.60;7.80;;;23.60;99.90;;;;;;5068199;28;20241;-74
2021/07/14 02:16:41;;;;;;;8.50;7.65;;;23.60;99.90;;;;;;5068508;28;20231;-74
2021/07/14 02:19:09;;;;;;;11.00;7.88;;;23.60;99.90;;;;;;5068358;28;20211;-73
2021/07/14 02:21:35;;;;;;;9.02;8.13;;;23.60;99.90;;;;;;5068418;28;20207;-74
2021/07/14 02:24:02;;;;;;;9.15;8.13;;;23.60;99.90;;;;;;5067841;28;20744;-73
2021/07/14 02:26:30;;;;;;;10.80;8.63;;;23.60;99.90;;;;;;5068384;28;20215;-73
2021/07/14 02:28:57;;;;;;;9.07;8.27;;;23.60;99.90;;;;;;5068381;28;20203;-74
2021/07/14 02:31:23;;;;;;;8.68;7.90;;;23.50;99.90;;;;;;5068344;28;20254;-73
2021/07/14 02:33:51;;;;;;;9.90;8.93;;;23.50;99.90;;;;;;5067969;28;20196;-73
2021/07/14 02:36:19;;;;;;;9.70;8.82;;;23.50;99.90;;;;;;5064846;28;20657;-74
2021/07/14 02:38:52;;;;;;;11.35;9.15;;;23.50;99.90;;;;;;5067762;28;20203;-75
2021/07/14 02:41:25;;;;;;;11.07;9.90;;;23.60;99.90;;;;;;5067875;28;20264;-75
2021/07/14 02:43:58;;;;;;;9.90;9.05;;;23.60;99.90;;;;;;5068072;28;20753;-74
2021/07/14 02:46:29;;;;;;;11.18;10.05;;;23.60;99.90;;;;;;5065303;28;20202;-74
2021/07/14 02:49:02;;;;;;;10.52;9.63;;;23.60;99.90;;;;;;5056318;28;20269;-74
2021/07/14 02:51:31;;;;;;;10.55;9.52;;;23.60;99.90;;;;;;5058887;28;20196;-74
2021/07/14 02:54:01;;;;;;;11.98;9.43;;;23.70;99.90;;;;;;5065806;28;20235;-74
2021/07/14 02:56:30;;;;;;;10.45;9.55;;;23.70;99.90;;;;;;5065523;28;20695;-74
2021/07/14 02:59:03;;;;;;;10.18;9.23;;;23.60;99.90;;;;;;5065833;28;20218;-74
2021/07/14 03:01:30;;;;;;;11.25;9.05;;;23.60;99.90;;;;;;5065973;28;20284;-78
2021/07/14 03:04:00;;;;;;;12.65;10.15;;;23.60;99.90;;;;;;5066286;28;20207;-77
2021/07/14 03:06:32;;;;;;;11.93;9.80;;;23.50;99.90;;;;;;5065703;28;20215;-74
2021/07/14 03:09:03;;;;;;;11.07;9.38;;;23.50;99.90;;;;;;5065249;28;20239;-74
2021/07/14 03:11:34;;;;;;;10.00;8.75;;;23.50;99.90;;;;;;5065411;28;20191;-75
2021/07/14 03:14:00;;;;;;;10.35;9.05;;;23.60;99.90;;;;;;5065865;28;20196;-74
2021/07/14 03:16:28;;;;;;;12.70;9.20;;;23.60;99.90;;;;;;5069754;28;20724;-74
2021/07/14 03:18:56;;;;;;;11.15;8.73;;;23.50;99.90;;;;;;5070005;28;20640;-74
2021/07/14 03:21:25;;;;;;;11.73;9.13;;;23.50;99.90;;;;;;5069991;28;20203;-74
2021/07/14 03:23:52;;;;;;;9.40;8.48;;;23.50;99.90;;;;;;5068750;28;20249;-74
2021/07/14 03:26:19;;;;;;;9.48;8.43;;;23.40;99.90;;;;;;5069645;28;20242;-75
2021/07/14 03:28:45;;;;;;;9.20;7.97;;;23.50;99.90;;;;;;5071660;28;20290;-74
2021/07/14 03:31:13;;;;;;;9.65;7.88;;;23.50;99.90;;;;;;5071075;28;20207;-74
2021/07/14 03:33:40;;;;;;;8.98;8.18;;;23.50;99.90;;;;;;5070367;28;20207;-74
2021/07/14 03:36:09;;;;;;;9.25;8.05;;;23.40;99.90;;;;;;5070592;28;20257;-74
2021/07/14 03:38:38;;;;;;;8.85;8.05;;;23.40;99.90;;;;;;5071373;28;20331;-74
2021/07/14 03:41:05;;;;;;;9.13;8.23;;;23.40;99.90;;;;;;5071277;28;20287;-74
2021/07/14 03:43:34;;;;;;;10.02;7.60;;;23.30;99.90;;;;;;5071180;28;20273;-74
2021/07/14 03:46:02;;;;;;;12.82;8.80;;;23.30;99.90;;;;;;5071142;28;20211;-74
2021/07/14 03:48:32;;;;;;;9.30;8.30;;;23.30;99.90;;;;;;5070907;28;20658;-74
2021/07/14 03:51:00;;;;;;;11.18;8.60;;;23.30;99.90;;;;;;5070945;28;20211;-74
2021/07/14 03:53:27;;;;;;;8.85;7.55;;;23.30;99.90;;;;;;5070822;28;20550;-74
2021/07/14 03:55:56;;;;;;;13.55;7.63;;;23.30;99.90;;;;;;5071080;28;20207;-74
2021/07/14 03:58:24;;;;;;;14.27;8.35;;;23.20;99.90;;;;;;5070770;28;20966;-74
2021/07/14 04:00:51;;;;;;;8.10;7.38;;;23.30;99.90;;;;;;5070985;28;20207;-74
2021/07/14 04:03:21;;;;;;;8.82;7.68;;;23.30;99.90;;;;;;5070885;28;20211;-74
2021/07/14 04:05:53;;;;;;;8.55;7.75;;;23.20;99.90;;;;;;5070918;28;20969;-74
2021/07/14 04:08:28;;;;;;;11.38;7.95;;;23.20;99.90;;;;;;5070482;28;20263;-74
2021/07/14 04:10:56;;;;;;;10.32;8.15;;;23.20;99.90;;;;;;5070691;28;20299;-74
2021/07/14 04:13:22;;;;;;;9.52;7.80;;;23.10;99.90;;;;;;5070630;28;20200;-74
2021/07/14 04:15:49;;;;;;;14.98;8.70;;;23.10;99.90;;;;;;5070460;28;20726;-74
2021/07/14 04:18:15;;;;;;;12.90;9.98;;;23.10;99.90;;;;;;5070037;28;20235;-74
2021/07/14 04:20:42;;;;;;;15.60;9.65;;;23.10;99.90;;;;;;5070768;28;20253;-74
2021/07/14 04:23:10;;;;;;;12.80;9.43;;;23.00;99.90;;;;;;5070533;28;20243;-74
2021/07/14 04:25:37;;;;;;;12.45;9.93;;;23.00;99.90;;;;;;5070564;28;20231;-75
2021/07/14 04:28:06;;;;;;;13.23;9.45;;;23.00;99.90;;;;;;5069765;28;20212;-75
2021/07/14 04:30:33;;;;;;;15.88;10.60;;;23.00;99.90;;;;;;5070607;28;20298;-74
2021/07/14 04:33:00;;;;;;;13.98;10.45;;;22.90;99.90;;;;;;5070305;28;20299;-74
2021/07/14 04:35:27;;;;;;;14.30;10.80;;;22.90;99.90;;;;;;5070387;28;20242;-74
2021/07/14 04:37:53;;;;;;;12.73;10.07;;;23.00;99.90;;;;;;5070224;28;20231;-74
2021/07/14 04:40:22;;;;;;;13.23;10.50;;;23.00;99.90;;;;;;5070135;28;20610;-75
2021/07/14 04:42:49;;;;;;;13.35;10.70;;;23.00;99.90;;;;;;5070200;28;20224;-74
2021/07/14 04:45:17;;;;;;;16.35;10.80;;;23.00;99.90;;;;;;5069972;28;20251;-74
2021/07/14 04:47:44;;;;;;;14.88;10.90;;;23.00;99.90;;;;;;5070148;28;20384;-74
2021/07/14 04:50:11;;;;;;;15.07;10.77;;;22.90;99.90;;;;;;5069705;28;20868;-75
2021/07/14 04:52:37;;;;;;;14.02;11.13;;;23.00;99.90;;;;;;5069822;28;20269;-74
2021/07/14 04:55:05;;;;;;;15.48;11.38;;;23.00;99.90;;;;;;5069802;28;20247;-75
2021/07/14 04:57:31;;;;;;;11.52;10.32;;;23.00;99.90;;;;;;5069676;28;20234;-75
2021/07/14 04:59:58;;;;;;;11.80;10.40;;;23.00;99.90;;;;;;5069929;28;20609;-75
2021/07/14 05:02:28;;;;;;;14.85;10.82;;;23.00;99.90;;;;;;5069824;28;20273;-75
2021/07/14 05:04:54;;;;;;;15.38;11.15;;;23.10;99.90;;;;;;5069688;28;20305;-75
2021/07/14 05:07:23;;;;;;;16.15;10.45;;;23.10;99.90;;;;;;5068915;28;20490;-75
2021/07/14 05:09:49;;;;;;;13.32;11.85;;;23.10;99.90;;;;;;5069242;28;20364;-75
2021/07/14 05:12:16;;;;;;;14.93;10.77;;;23.10;99.90;;;;;;5069310;28;20210;-74
2021/07/14 05:14:43;;;;;;;13.70;11.25;;;23.10;99.90;;;;;;5069576;28;20239;-74
2021/07/14 05:17:10;;;;;;;16.85;11.55;;;23.10;99.90;;;;;;5069367;28;20219;-75
2021/07/14 05:19:38;;;;;;;15.93;11.77;;;23.10;99.90;;;;;;5069546;28;20199;-75
2021/07/14 05:22:04;;;;;;;15.40;11.18;;;23.20;99.90;;;;;;5069429;28;20269;-74
2021/07/14 05:24:31;;;;;;;15.00;11.35;;;23.10;99.90;;;;;;5068216;28;20246;-74
2021/07/14 05:26:58;;;;;;;19.10;11.77;;;23.20;99.90;;;;;;5067039;28;20727;-75
2021/07/14 05:29:25;;;;;;;14.82;11.30;;;23.20;99.90;;;;;;5068992;28;20629;-75
2021/07/14 05:31:51;;;;;;;15.13;12.45;;;23.20;99.90;;;;;;5068921;28;20684;-74
2021/07/14 05:34:18;;;;;;;13.43;12.02;;;23.30;99.90;;;;;;5068764;28;20234;-74
2021/07/14 05:36:46;;;;;;;16.02;12.50;;;23.30;99.90;;;;;;5069004;28;20241;-74
2021/07/14 05:39:13;;;;;;;18.25;12.70;;;23.30;99.90;;;;;;5067807;28;20813;-75
2021/07/14 05:41:41;;;;;;;17.52;12.27;;;23.30;99.90;;;;;;5068956;28;20245;-75
2021/07/14 05:44:10;;;;;;;16.20;11.85;;;23.30;99.90;;;;;;5068777;28;20531;-75
2021/07/14 05:46:37;;;;;;;14.40;12.30;;;23.30;99.90;;;;;;5068877;28;20207;-75
2021/07/14 05:49:03;;;;;;;15.25;11.70;;;23.30;99.90;;;;;;5068962;28;20245;-74
2021/07/14 05:51:30;;;;;;;13.02;11.45;;;23.30;99.90;;;;;;5068858;28;20243;-74
2021/07/14 05:53:59;;;;;;;13.15;11.68;;;23.40;99.90;;;;;;5068937;28;20203;-75
2021/07/14 05:56:25;;;;;;;13.40;11.82;;;23.40;99.90;;;;;;5068429;28;20558;-74
2021/07/14 05:58:52;;;;;;;14.82;11.32;;;23.40;99.90;;;;;;5068879;28;20234;-74
2021/07/14 06:01:19;;;;;;;13.95;10.30;;;23.50;99.90;;;;;;5068262;28;20317;-74
2021/07/14 06:03:47;;;;;;;14.10;11.35;;;23.40;99.90;;;;;;5068481;28;20249;-75
2021/07/14 06:06:13;;;;;;;12.30;11.10;;;23.50;99.90;;;;;;5068545;28;20291;-74
2021/07/14 06:08:40;;;;;;;13.75;10.95;;;23.50;99.90;;;;;;5068103;28;20262;-75
2021/07/14 06:11:08;;;;;;;14.98;11.73;;;23.60;99.90;;;;;;5068821;28;20280;-74
2021/07/14 06:13:35;;;;;;;14.63;11.55;;;23.60;99.90;;;;;;5068701;28;20276;-75
2021/07/14 06:16:01;;;;;;;12.95;11.48;;;23.70;99.90;;;;;;5068448;28;20245;-74
2021/07/14 06:18:28;;;;;;;14.95;11.23;;;23.70;99.90;;;;;;5067587;28;20821;-74
2021/07/14 06:20:55;;;;;;;12.55;11.25;;;23.70;99.90;;;;;;5067976;28;20231;-74
2021/07/14 06:23:22;;;;;;;14.82;11.50;;;23.70;99.90;;;;;;5068180;28;20231;-75
2021/07/14 06:25:49;;;;;;;13.35;11.65;;;23.70;99.90;;;;;;5068401;28;20249;-74
2021/07/14 06:28:17;;;;;;;13.70;11.70;;;23.70;99.90;;;;;;5068096;28;20292;-75
2021/07/14 06:30:46;;;;;;;13.63;11.52;;;23.70;99.90;;;;;;5068421;28;20211;-75
2021/07/14 06:33:13;;;;;;;13.40;11.98;;;23.70;99.90;;;;;;5067884;28;20669;-74
2021/07/14 06:35:43;;;;;;;14.70;12.45;;;23.70;99.90;;;;;;5068429;28;20207;-74
2021/07/14 06:38:10;;;;;;;15.80;11.98;;;23.60;99.90;;;;;;5068102;28;20223;-75
2021/07/14 06:40:38;;;;;;;15.77;12.20;;;23.60;99.90;;;;;;5068235;28;20256;-74
2021/07/14 06:43:06;;;;;;;14.57;12.73;;;23.60;99.90;;;;;;5068260;28;20227;-75
2021/07/14 06:45:34;;;;;;;14.40;12.88;;;23.60;99.90;;;;;;5067952;28;20269;-75
2021/07/14 06:48:01;;;;;;;13.93;11.85;;;23.60;99.90;;;;;;5068453;28;20253;-75
2021/07/14 06:50:27;;;;;;;15.27;12.77;;;23.50;99.90;;;;;;5070417;28;20211;-75
2021/07/14 06:52:54;;;;;;;12.48;11.02;;;23.50;99.90;;;;;;5072095;28;20215;-75
2021/07/14 06:55:21;;;;;;;13.40;11.27;;;23.50;99.90;;;;;;5072133;28;20210;-74
2021/07/14 06:57:47;;;;;;;13.60;12.20;;;23.50;99.90;;;;;;5071468;28;20211;-75
2021/07/14 07:00:15;;;;;;;13.07;11.88;;;23.40;99.90;;;;;;5071456;28;20560;-75
2021/07/14 07:02:44;;;;;;;13.23;11.35;;;23.40;99.90;;;;;;5071995;28;20199;-75
2021/07/14 07:05:11;;;;;;;15.23;12.18;;;23.40;99.90;;;;;;5071791;28;20269;-75
2021/07/14 07:07:38;;;;;;;12.73;11.52;;;23.40;99.90;;;;;;5071556;28;20223;-74
2021/07/14 07:10:06;;;;;;;12.43;11.30;;;23.40;99.90;;;;;;5071509;28;20724;-74
2021/07/14 07:12:32;;;;;;;12.68;11.48;;;23.40;99.90;;;;;;5071732;28;20257;-74
2021/07/14 07:14:59;;;;;;;13.18;11.90;;;23.50;99.90;;;;;;5071663;28;20207;-74
2021/07/14 07:17:26;;;;;;;13.48;11.75;;;23.60;99.90;;;;;;5071694;28;20220;-75
2021/07/14 07:19:54;;;;;;;14.13;12.07;;;23.60;99.90;;;;;;5071517;28;20599;-74
2021/07/14 07:22:20;;;;;;;12.25;11.05;;;23.70;99.90;;;;;;5071403;28;20203;-74
2021/07/14 07:24:47;;;;;;;12.40;11.10;;;23.70;99.90;;;;;;5071550;28;20217;-75
2021/07/14 07:27:14;;;;;;;13.55;11.15;;;23.80;99.90;;;;;;5071639;28;20233;-75
2021/07/14 07:29:40;;;;;;;11.98;10.82;;;23.80;99.90;;;;;;5071558;28;20206;-75
2021/07/14 07:32:07;;;;;;;11.48;10.18;;;23.80;99.90;;;;;;5071153;28;20256;-74
2021/07/14 07:34:34;;;;;;;12.32;11.05;;;23.80;99.90;;;;;;5071045;28;20739;-74
2021/07/14 07:37:03;;;;;;;11.80;10.75;;;23.80;99.90;;;;;;5071326;28;20214;-74
2021/07/14 07:39:30;;;;;;;11.70;10.50;;;23.80;99.90;;;;;;5070831;28;20227;-74
2021/07/14 07:41:59;;;;;;;12.20;10.90;;;23.80;99.90;;;;;;5071356;28;20259;-74
2021/07/14 07:44:26;;;;;;;12.68;10.20;;;23.90;99.90;;;;;;5070963;28;20581;-75
2021/07/14 07:46:54;;;;;;;11.27;10.18;;;24.00;99.90;;;;;;5071121;28;20325;-75
2021/07/14 07:49:20;;;;;;;12.98;10.25;;;24.00;99.90;;;;;;5070501;28;20681;-74
2021/07/14 07:51:47;;;;;;;10.73;9.68;;;24.00;99.90;;;;;;5070767;28;20665;-75
2021/07/14 07:54:15;;;;;;;11.05;10.10;;;24.00;99.90;;;;;;5070538;28;20204;-75
2021/07/14 07:56:41;;;;;;;9.95;9.13;;;24.00;99.90;;;;;;5070671;28;20564;-75
2021/07/14 07:59:09;;;;;;;9.98;9.05;;;24.00;99.90;;;;;;5070744;28;20262;-75
2021/07/14 08:01:36;;;;;;;10.93;9.25;;;24.00;99.90;;;;;;5069999;28;20252;-74
2021/07/14 08:04:03;;;;;;;9.13;8.27;;;24.00;99.90;;;;;;5070944;28;20257;-75
2021/07/14 08:06:29;;;;;;;10.18;9.07;;;24.10;99.90;;;;;;5070723;28;20247;-75
2021/07/14 08:08:56;;;;;;;8.40;7.72;;;24.20;99.90;;;;;;5070426;28;21200;-75
2021/07/14 08:11:24;;;;;;;8.25;7.50;;;24.30;99.90;;;;;;5070826;28;20249;-74
2021/07/14 08:13:54;;;;;;;8.52;7.65;;;24.40;99.90;;;;;;5070640;28;20265;-74
2021/07/14 08:16:21;;;;;;;8.23;7.15;;;24.50;99.90;;;;;;5070954;28;20202;-74
2021/07/14 08:18:47;;;;;;;7.00;6.50;;;24.50;99.90;;;;;;5070396;28;20567;-75
2021/07/14 08:21:14;;;;;;;11.23;7.93;;;24.60;99.90;;;;;;5070610;28;20256;-75
2021/07/14 08:23:41;;;;;;;7.43;6.82;;;24.60;99.90;;;;;;5070295;28;20609;-75
2021/07/14 08:26:07;;;;;;;8.10;7.40;;;24.70;99.90;;;;;;5070433;28;20204;-75
2021/07/14 08:28:35;;;;;;;8.48;7.03;;;24.70;99.90;;;;;;5070691;28;20264;-75
2021/07/14 08:31:02;;;;;;;8.20;7.53;;;24.70;99.90;;;;;;5070355;28;20658;-74
2021/07/14 08:33:28;;;;;;;8.00;7.40;;;24.70;99.90;;;;;;5070028;28;20607;-75
2021/07/14 08:35:55;;;;;;;8.15;7.45;;;24.70;99.90;;;;;;5070407;28;20252;-74
2021/07/14 08:38:22;;;;;;;8.20;7.05;;;24.70;99.90;;;;;;5069987;28;20242;-75
2021/07/14 08:40:51;;;;;;;11.48;7.25;;;24.70;99.90;;;;;;5070100;28;20207;-75
2021/07/14 08:43:21;;;;;;;8.48;6.85;;;24.70;99.90;;;;;;5069975;28;20231;-74
2021/07/14 08:45:49;;;;;;;7.20;6.60;;;24.60;99.90;;;;;;5069867;28;20209;-75
2021/07/14 08:48:16;;;;;;;7.55;6.85;;;24.60;99.90;;;;;;5070036;28;20242;-74
2021/07/14 08:50:44;;;;;;;7.93;7.10;;;24.60;99.90;;;;;;5070201;28;20253;-74
2021/07/14 08:53:16;;;;;;;8.45;7.05;;;24.70;99.90;;;;;;5069827;28;20200;-75
2021/07/14 08:55:44;;;;;;;7.80;7.10;;;24.80;99.90;;;;;;5070167;28;20199;-74
2021/07/14 08:58:12;;;;;;;8.27;7.53;;;24.80;99.90;;;;;;5069903;28;20288;-74
2021/07/14 09:00:39;;;;;;;8.30;7.65;;;24.80;99.90;;;;;;5069704;28;20207;-74
2021/07/14 09:03:08;;;;;;;8.10;7.50;;;24.80;99.90;;;;;;5069768;28;20242;-75
2021/07/14 09:05:34;;;;;;;10.23;7.40;;;24.70;99.90;;;;;;5069695;28;20269;-74
2021/07/14 09:08:01;;;;;;;8.63;7.22;;;24.80;99.90;;;;;;5069061;28;20637;-74
2021/07/14 09:10:28;;;;;;;7.82;7.07;;;24.90;99.90;;;;;;5069529;28;20598;-75
2021/07/14 09:12:57;;;;;;;8.82;7.93;;;24.90;99.90;;;;;;5069199;28;20681;-74
2021/07/14 09:15:26;;;;;;;8.45;7.60;;;24.90;99.90;;;;;;5069164;28;20725;-75
2021/07/14 09:17:54;;;;;;;7.68;7.13;;;24.90;99.90;;;;;;5069424;28;20214;-74
2021/07/14 09:20:25;;;;;;;8.98;8.15;;;24.90;99.90;;;;;;5068928;28;20227;-74
2021/07/14 09:23:02;;;;;;;8.25;7.65;;;24.90;99.90;;;;;;5069283;28;20199;-75
2021/07/14 09:25:30;;;;;;;9.93;7.90;;;24.90;99.90;;;;;;5069223;28;20245;-74
2021/07/14 09:27:59;;;;;;;8.48;7.78;;;25.00;99.90;;;;;;5069266;28;20210;-74
2021/07/14 09:30:27;;;;;;;7.95;7.03;;;25.00;99.90;;;;;;5068997;28;20211;-74
2021/07/14 09:32:55;;;;;;;8.32;7.68;;;25.10;99.90;;;;;;5068880;28;20761;-75
2021/07/14 09:35:29;;;;;;;7.63;7.03;;;25.30;99.90;;;;;;5068799;28;20199;-75
2021/07/14 09:37:59;;;;;;;8.40;7.53;;;25.40;99.90;;;;;;5068906;28;20225;-74
2021/07/14 09:40:25;;;;;;;7.65;7.05;;;25.40;99.90;;;;;;5068795;28;20231;-75
2021/07/14 09:42:59;;;;;;;7.68;6.90;;;25.50;99.90;;;;;;5068960;28;20232;-75
2021/07/14 09:45:40;;;;;;;9.25;7.25;;;25.40;99.90;;;;;;5068864;28;20253;-74
2021/07/14 09:48:09;;;;;;;7.63;7.22;;;25.50;99.90;;;;;;5069045;28;20207;-75
2021/07/14 09:50:39;;;;;;;8.00;7.30;;;25.50;99.90;;;;;;5068736;28;20203;-74
2021/07/14 09:53:07;;;;;;;8.57;7.78;;;25.50;99.90;;;;;;5068860;28;20199;-75
2021/07/14 09:55:35;;;;;;;13.45;8.18;;;25.50;99.90;;;;;;5068388;28;20596;-75
2021/07/14 09:58:09;;;;;;;8.70;7.07;;;25.50;99.90;;;;;;5068678;28;20207;-75
2021/07/14 10:00:45;;;;;;;10.45;7.75;;;25.50;99.90;;;;;;5068716;28;20655;-75
2021/07/14 10:03:21;;;;;;;15.07;8.25;;;25.40;99.90;;;;;;5068637;28;20249;-75
2021/07/14 10:05:50;;;;;;;7.57;7.13;;;25.40;99.90;;;;;;5068610;28;20195;-75
2021/07/14 10:08:22;;;;;;;10.27;7.93;;;25.40;99.90;;;;;;5068173;28;20269;-74
2021/07/14 10:10:51;;;;;;;8.27;7.65;;;25.20;99.90;;;;;;5068725;28;20208;-75
2021/07/14 10:13:21;;;;;;;8.98;8.30;;;25.30;99.90;;;;;;5068236;28;20207;-74
2021/07/14 10:16:01;;;;;;;9.77;8.73;;;25.30;99.90;;;;;;5068343;28;20633;-74
2021/07/14 10:18:28;;;;;;;11.90;8.50;;;25.30;99.90;;;;;;5068381;28;20278;-75
2021/07/14 10:20:56;;;;;;;20.08;10.98;;;25.30;99.90;;;;;;5068594;28;20300;-74
2021/07/14 10:23:23;;;;;;;8.82;8.10;;;25.30;99.90;;;;;;5068225;28;20234;-74
2021/07/14 10:25:51;;;;;;;8.40;7.80;;;25.30;99.90;;;;;;5067970;28;20207;-75
2021/07/14 10:28:19;;;;;;;8.60;7.78;;;25.40;99.90;;;;;;5068481;28;20546;-74
2021/07/14 10:30:49;;;;;;;8.40;7.65;;;25.40;99.90;;;;;;5068498;28;20215;-75
2021/07/14 10:33:18;;;;;;;8.95;7.53;;;25.40;99.90;;;;;;5068120;28;20556;-75
2021/07/14 10:35:46;;;;;;;8.27;7.35;;;25.20;99.90;;;;;;5068568;28;20264;-74
2021/07/14 10:38:17;;;;;;;8.48;7.75;;;25.20;99.90;;;;;;5068365;28;20618;-74
2021/07/14 10:40:46;;;;;;;8.35;6.93;;;25.20;99.90;;;;;;5068212;28;20250;-75
2021/07/14 10:43:16;;;;;;;7.95;7.35;;;25.30;99.90;;;;;;5067993;28;20731;-75
2021/07/14 10:45:43;;;;;;;7.97;7.38;;;25.30;99.90;;;;;;5068025;28;20208;-75
2021/07/14 10:48:12;;;;;;;9.57;6.75;;;25.40;99.90;;;;;;5068200;28;20225;-75
2021/07/14 10:50:41;;;;;;;7.38;6.88;;;25.40;99.90;;;;;;5068161;28;20211;-75
2021/07/14 10:53:07;;;;;;;7.90;7.20;;;25.50;99.90;;;;;;5068024;28;20203;-75
2021/07/14 10:55:36;;;;;;;7.47;6.88;;;25.50;99.90;;;;;;5068011;28;20208;-75
2021/07/14 10:58:05;;;;;;;7.45;6.95;;;25.60;99.90;;;;;;5068003;28;20199;-75
2021/07/14 11:00:37;;;;;;;7.47;6.78;;;25.60;99.90;;;;;;5068242;28;20273;-75
2021/07/14 11:03:04;;;;;;;7.82;7.13;;;25.60;99.90;;;;;;5068190;28;20196;-75
2021/07/14 11:05:35;;;;;;;7.93;7.15;;;25.60;99.90;;;;;;5068247;28;20239;-74
2021/07/14 11:08:02;;;;;;;7.68;7.18;;;25.60;99.90;;;;;;5067586;28;20242;-75
2021/07/14 11:10:31;;;;;;;7.30;6.75;;;25.60;99.90;;;;;;5067677;28;20751;-75
2021/07/14 11:13:21;;;;;;;7.85;7.15;;;25.50;99.90;;;;;;5068130;28;20277;-75
2021/07/14 11:15:49;;;;;;;9.77;6.68;;;25.50;99.90;;;;;;5067154;28;20552;-74
2021/07/14 11:18:37;;;;;;;8.23;7.38;;;25.50;99.90;;;;;;5068135;28;20203;-75
2021/07/14 11:21:04;;;;;;;8.07;7.38;;;25.50;99.90;;;;;;5067725;28;20654;-75
2021/07/14 11:23:31;;;;;;;8.13;7.53;;;25.50;99.90;;;;;;5067820;28;20207;-75
2021/07/14 11:25:59;;;;;;;7.43;6.90;;;25.50;99.90;;;;;;5068018;28;20257;-75
2021/07/14 11:28:28;;;;;;;8.02;7.32;;;25.60;99.90;;;;;;5067655;28;20204;-75
2021/07/14 11:30:57;;;;;;;7.75;7.15;;;25.50;99.90;;;;;;5067855;28;20203;-75
2021/07/14 11:33:28;;;;;;;7.63;7.03;;;25.60;99.90;;;;;;5067558;28;20211;-75
2021/07/14 11:35:57;;;;;;;10.05;7.18;;;25.60;99.90;;;;;;5069042;28;20199;-75
2021/07/14 11:38:27;;;;;;;7.28;6.68;;;25.60;99.90;;;;;;5071193;28;20218;-75
2021/07/14 11:40:56;;;;;;;7.55;6.85;;;25.60;99.90;;;;;;5071553;28;20224;-75
2021/07/14 11:43:26;;;;;;;6.82;6.40;;;25.60;99.90;;;;;;5071396;28;20298;-75
2021/07/14 11:45:57;;;;;;;8.38;6.40;;;25.70;99.90;;;;;;5071190;28;20203;-75
2021/07/14 11:48:33;;;;;;;9.00;6.18;;;25.80;99.90;;;;;;5070981;28;20192;-75
2021/07/14 11:51:02;;;;;;;7.20;6.57;;;25.80;99.90;;;;;;5071281;28;20203;-75
2021/07/14 11:53:35;;;;;;;6.72;6.18;;;25.90;99.90;;;;;;5070832;28;20203;-75
2021/07/14 11:56:03;;;;;;;6.53;6.07;;;25.90;99.90;;;;;;5071304;28;20286;-75
2021/07/14 11:58:50;;;;;;;7.32;6.57;;;25.90;99.90;;;;;;5070565;28;20548;-75
2021/07/14 12:01:51;;;;;;;6.45;5.85;;;25.90;99.90;;;;;;5070976;28;20277;-74
2021/07/14 12:04:19;;;;;;;6.93;6.32;;;26.00;99.90;;;;;;5070751;28;20192;-75
2021/07/14 12:06:48;;;;;;;7.32;6.82;;;26.00;99.90;;;;;;5070720;28;20254;-75
2021/07/14 12:09:29;;;;;;;6.38;5.88;;;25.90;99.90;;;;;;5070302;28;20227;-75
2021/07/14 12:11:59;;;;;;;7.72;7.18;;;26.00;99.90;;;;;;5070915;28;20211;-74
2021/07/14 12:14:28;;;;;;;7.07;6.68;;;26.00;99.90;;;;;;5070940;28;20260;-75
2021/07/14 12:16:58;;;;;;;6.80;5.85;;;26.10;99.90;;;;;;5070933;28;20208;-75
2021/07/14 12:19:27;;;;;;;7.18;6.57;;;26.30;99.90;;;;;;5070729;28;20608;-75
2021/07/14 12:21:55;;;;;;;6.40;5.88;;;26.50;99.90;;;;;;5070882;28;20207;-75
2021/07/14 12:24:31;;;;;;;6.30;6.00;;;26.80;99.90;;;;;;5070646;28;20203;-75
2021/07/14 12:27:09;;;;;;;6.20;5.75;;;27.10;99.90;;;;;;5070774;28;20187;-74
2021/07/14 12:29:36;;;;;;;5.65;5.25;;;27.40;99.90;;;;;;5070390;28;20195;-75
2021/07/14 12:32:06;;;;;;;5.25;4.90;;;27.70;99.90;;;;;;5070267;28;20207;-75
2021/07/14 12:34:34;;;;;;;5.45;5.05;;;27.70;99.90;;;;;;5070324;28;20234;-74
2021/07/14 12:37:03;;;;;;;5.05;4.75;;;27.50;99.90;;;;;;5070336;28;20285;-75
2021/07/14 12:39:34;;;;;;;5.03;4.53;;;27.40;99.90;;;;;;5070047;28;20253;-75
2021/07/14 12:42:03;;;;;;;4.75;4.47;;;27.20;99.90;;;;;;5070277;28;20231;-75
2021/07/14 12:44:30;;;;;;;5.05;4.75;;;27.00;99.90;;;;;;5070145;28;20203;-75
2021/07/14 12:47:16;;;;;;;8.13;4.63;;;26.90;99.90;;;;;;5069977;28;20230;-75
2021/07/14 12:49:44;;;;;;;4.47;4.10;;;26.80;99.90;;;;;;5069629;28;20668;-75
2021/07/14 12:52:13;;;;;;;4.70;4.40;;;26.70;99.90;;;;;;5070166;28;20253;-75
2021/07/14 12:54:41;;;;;;;8.32;4.53;;;26.70;99.90;;;;;;5069580;28;20309;-75
2021/07/14 12:57:22;;;;;;;5.00;4.60;;;26.80;99.90;;;;;;5070050;28;20213;-75
2021/07/14 12:59:57;;;;;;;4.80;4.40;;;26.90;99.90;;;;;;5069912;28;20200;-75